Time;durP1;ratioP1;P1;durP2;ratioP2;P2;SDS_P1;SDS_P2;PMS_P1;PMS_P2;Temp;Humidity;BMP_temperature;BMP_pressure;BME280_temperature;BME280_humidity;BME280_pressure;Samples;Min_cycle;Max_cycle;Signal;HPM_P1;HPM_P2
2020/12/29 00:01:48;;;;;;;4.72;2.03;;;;;;;2.27;76.62;95387.47;5071326;28;20090;-72
2020/12/29 00:04:25;;;;;;;4.20;2.05;;;;;;;2.23;76.83;95396.97;5072681;28;20362;-72
2020/12/29 00:06:57;;;;;;;3.22;1.60;;;;;;;2.36;76.43;95396.75;5058514;28;20027;-72
2020/12/29 00:09:24;;;;;;;3.45;1.77;;;;;;;2.42;76.41;95393.94;5062991;28;20565;-72
2020/12/29 00:11:50;;;;;;;3.83;2.20;;;;;;;2.32;76.53;95400.91;5065036;28;20474;-72
2020/12/29 00:14:17;;;;;;;4.28;1.73;;;;;;;2.32;76.68;95393.72;5072060;28;20023;-72
2020/12/29 00:16:43;;;;;;;4.93;1.85;;;;;;;2.29;76.94;95390.72;5054426;28;20359;-72
2020/12/29 00:19:13;;;;;;;3.97;1.80;;;;;;;2.37;75.74;95374.34;5071132;28;20035;-72
2020/12/29 00:21:39;;;;;;;2.20;1.30;;;;;;;2.47;75.81;95381.75;5070738;28;20038;-72
2020/12/29 00:24:05;;;;;;;3.35;1.13;;;;;;;2.62;74.84;95393.53;5074785;28;20412;-72
2020/12/29 00:26:30;;;;;;;1.88;0.82;;;;;;;2.75;74.79;95387.13;5073006;28;20025;-72
2020/12/29 00:28:56;;;;;;;3.65;1.10;;;;;;;2.79;74.51;95395.44;5072082;28;20051;-72
2020/12/29 00:31:22;;;;;;;1.77;1.02;;;;;;;2.70;75.07;95387.00;5065744;28;20417;-72
2020/12/29 00:33:48;;;;;;;1.95;1.20;;;;;;;2.88;74.88;95407.34;5074228;28;20541;-72
2020/12/29 00:36:15;;;;;;;2.13;0.90;;;;;;;2.77;75.02;95401.00;5069257;28;20032;-72
2020/12/29 00:38:40;;;;;;;5.22;1.05;;;;;;;2.87;75.83;95407.59;5076227;28;20115;-71
2020/12/29 00:41:10;;;;;;;1.15;0.70;;;;;;;2.80;76.30;95407.72;5069182;28;20699;-72
2020/12/29 00:43:36;;;;;;;0.93;0.75;;;;;;;2.80;77.23;95403.22;5066106;28;20048;-72
2020/12/29 00:46:08;;;;;;;0.70;0.60;;;;;;;2.71;77.27;95396.63;5068298;28;20564;-72
2020/12/29 00:48:34;;;;;;;1.55;0.77;;;;;;;2.81;77.47;95407.50;5072788;28;20039;-72
2020/12/29 00:51:08;;;;;;;0.70;0.50;;;;;;;2.80;77.74;95403.22;5061433;28;20021;-71
2020/12/29 00:53:33;;;;;;;1.08;0.80;;;;;;;2.79;77.39;95398.13;5059473;28;20043;-72
2020/12/29 00:56:00;;;;;;;1.25;0.70;;;;;;;2.87;77.73;95418.28;5073245;28;20477;-72
2020/12/29 00:58:25;;;;;;;0.85;0.50;;;;;;;2.79;78.23;95411.47;5067614;28;20028;-72
2020/12/29 01:00:50;;;;;;;0.70;0.40;;;;;;;2.91;78.02;95438.94;5063043;28;20021;-72
2020/12/29 01:03:16;;;;;;;1.00;0.35;;;;;;;2.85;77.73;95410.50;5067098;28;20017;-72
2020/12/29 01:05:46;;;;;;;0.90;0.47;;;;;;;2.91;77.55;95422.09;5062892;28;20032;-72
2020/12/29 01:08:11;;;;;;;2.47;0.50;;;;;;;3.02;77.85;95429.25;5062077;28;20028;-72
2020/12/29 01:10:38;;;;;;;0.82;0.50;;;;;;;3.02;77.18;95430.06;5063570;28;20029;-72
2020/12/29 01:13:04;;;;;;;0.50;0.38;;;;;;;3.07;77.74;95429.34;5057296;28;20028;-72
2020/12/29 01:15:29;;;;;;;0.40;0.40;;;;;;;3.03;77.19;95423.66;5058878;28;20055;-72
2020/12/29 01:17:54;;;;;;;1.50;0.40;;;;;;;3.03;77.67;95430.88;5056439;28;20593;-72
2020/12/29 01:20:20;;;;;;;0.90;0.38;;;;;;;3.15;77.13;95434.31;5072619;28;20473;-72
2020/12/29 01:22:45;;;;;;;0.40;0.30;;;;;;;3.19;77.10;95443.44;5067919;28;20385;-72
2020/12/29 01:25:10;;;;;;;0.98;0.30;;;;;;;3.25;77.00;95442.50;5072863;28;20027;-72
2020/12/29 01:27:36;;;;;;;2.15;0.40;;;;;;;3.23;76.78;95433.91;5061142;28;20025;-71
2020/12/29 01:30:04;;;;;;;1.27;0.50;;;;;;;3.31;76.64;95434.59;5076537;28;20032;-72
2020/12/29 01:32:30;;;;;;;0.30;0.30;;;;;;;3.22;77.17;95440.31;5059010;28;20025;-72
2020/12/29 01:34:55;;;;;;;1.60;0.40;;;;;;;3.26;77.18;95444.13;5067047;28;20047;-72
2020/12/29 01:37:20;;;;;;;0.90;0.35;;;;;;;3.17;77.45;95442.06;5068012;28;20525;-72
2020/12/29 01:39:46;;;;;;;0.65;0.40;;;;;;;3.10;77.80;95434.22;5059644;28;20027;-72
2020/12/29 01:42:11;;;;;;;0.63;0.30;;;;;;;3.10;78.21;95436.88;5058892;28;20036;-72
2020/12/29 01:44:36;;;;;;;0.80;0.40;;;;;;;3.17;78.60;95453.56;5055344;28;20544;-70
2020/12/29 01:47:02;;;;;;;0.60;0.32;;;;;;;3.04;78.87;95440.50;5073100;28;20107;-72
2020/12/29 01:49:28;;;;;;;1.65;0.20;;;;;;;3.10;79.54;95463.59;5063673;28;20036;-72
2020/12/29 01:51:53;;;;;;;0.30;0.13;;;;;;;3.07;80.57;95445.38;5062551;28;20115;-72
2020/12/29 01:54:19;;;;;;;0.30;0.28;;;;;;;2.97;82.22;95461.19;5062957;28;20036;-71
2020/12/29 01:56:44;;;;;;;0.60;0.20;;;;;;;2.77;83.34;95462.41;5062063;28;20028;-72
2020/12/29 01:59:12;;;;;;;1.63;0.57;;;;;;;2.75;84.39;95485.03;5069229;28;20036;-72
2020/12/29 02:01:38;;;;;;;0.70;0.50;;;;;;;2.67;85.68;95478.22;5064180;28;20028;-72
2020/12/29 02:04:05;;;;;;;1.40;0.50;;;;;;;2.49;85.30;95459.69;5069725;28;20556;-72
2020/12/29 02:06:32;;;;;;;0.40;0.30;;;;;;;2.55;85.42;95475.56;5067509;28;20451;-72
2020/12/29 02:08:59;;;;;;;0.50;0.25;;;;;;;2.44;86.11;95471.06;5070496;28;20036;-72
2020/12/29 02:11:25;;;;;;;0.88;0.30;;;;;;;2.40;86.82;95459.25;5071336;28;20386;-72
2020/12/29 02:13:50;;;;;;;0.47;0.20;;;;;;;2.27;86.95;95452.28;5059148;28;20040;-72
2020/12/29 02:16:16;;;;;;;0.30;0.30;;;;;;;2.35;86.60;95469.81;5056443;28;20039;-72
2020/12/29 02:18:41;;;;;;;2.53;0.30;;;;;;;2.38;86.02;95467.50;5066246;28;20032;-71
2020/12/29 02:21:06;;;;;;;0.68;0.35;;;;;;;2.45;86.71;95479.88;5051722;28;20052;-72
2020/12/29 02:23:31;;;;;;;0.43;0.40;;;;;;;2.32;86.66;95473.75;5059379;28;20028;-72
2020/12/29 02:25:57;;;;;;;0.85;0.50;;;;;;;2.24;87.14;95473.28;5069723;28;20052;-74
2020/12/29 02:28:22;;;;;;;0.90;0.60;;;;;;;2.34;87.40;95493.00;5054882;28;20471;-72
2020/12/29 02:30:47;;;;;;;0.73;0.45;;;;;;;2.19;87.55;95476.66;5060612;28;20059;-71
2020/12/29 02:33:12;;;;;;;0.95;0.70;;;;;;;2.19;87.78;95480.13;5073651;28;20538;-72
2020/12/29 02:35:38;;;;;;;0.55;0.40;;;;;;;2.25;87.85;95485.56;5060547;28;20091;-72
2020/12/29 02:38:03;;;;;;;1.25;0.30;;;;;;;2.16;87.75;95477.13;5064304;28;20037;-72
2020/12/29 02:40:28;;;;;;;0.30;0.25;;;;;;;2.21;87.64;95474.56;5079565;28;20092;-71
2020/12/29 02:42:54;;;;;;;0.95;0.40;;;;;;;2.30;87.44;95488.34;5085467;28;20025;-71
2020/12/29 02:45:19;;;;;;;0.65;0.50;;;;;;;2.38;87.13;95501.34;5095449;28;20033;-71
2020/12/29 02:47:44;;;;;;;2.13;0.57;;;;;;;2.37;87.49;95505.88;5088690;28;20036;-72
2020/12/29 02:50:10;;;;;;;0.38;0.30;;;;;;;2.36;87.21;95488.25;5078570;28;20013;-73
2020/12/29 02:52:35;;;;;;;0.45;0.20;;;;;;;2.47;87.25;95502.63;5090987;28;20780;-72
2020/12/29 02:55:00;;;;;;;1.70;0.65;;;;;;;2.52;87.48;95510.75;5089897;28;20052;-71
2020/12/29 02:57:25;;;;;;;0.60;0.50;;;;;;;2.54;87.76;95510.50;5085230;28;20028;-72
2020/12/29 02:59:51;;;;;;;0.93;0.52;;;;;;;2.51;88.07;95494.94;5086545;28;20028;-72
2020/12/29 03:02:16;;;;;;;0.40;0.30;;;;;;;2.45;88.54;95501.22;5085170;28;20058;-72
2020/12/29 03:04:41;;;;;;;0.68;0.40;;;;;;;2.50;88.04;95520.03;5083244;28;20062;-73
2020/12/29 03:07:06;;;;;;;1.25;0.40;;;;;;;2.48;88.94;95522.09;5078514;28;20438;-75
2020/12/29 03:09:32;;;;;;;1.02;0.38;;;;;;;2.49;88.47;95515.72;5060669;28;20032;-72
2020/12/29 03:11:57;;;;;;;1.67;0.38;;;;;;;2.45;88.44;95511.91;5076263;28;20017;-73
2020/12/29 03:14:22;;;;;;;2.60;0.30;;;;;;;2.33;88.67;95510.06;5064275;28;20070;-72
2020/12/29 03:16:48;;;;;;;0.60;0.45;;;;;;;2.36;88.41;95512.25;5054605;28;20656;-73
2020/12/29 03:19:14;;;;;;;0.77;0.40;;;;;;;2.37;88.14;95503.19;5060880;28;20391;-73
2020/12/29 03:21:40;;;;;;;1.40;0.35;;;;;;;2.46;87.55;95533.00;5055028;28;20032;-72
2020/12/29 03:24:05;;;;;;;0.38;0.20;;;;;;;2.56;87.22;95532.41;5058717;28;20079;-74
2020/12/29 03:26:31;;;;;;;0.45;0.30;;;;;;;2.58;87.02;95533.81;5063454;28;20825;-72
2020/12/29 03:28:56;;;;;;;0.35;0.30;;;;;;;2.63;85.72;95531.25;5067895;28;20020;-72
2020/12/29 03:31:21;;;;;;;0.30;0.30;;;;;;;2.72;85.32;95537.03;5065070;28;20505;-72
2020/12/29 03:33:47;;;;;;;0.45;0.30;;;;;;;2.79;84.48;95529.72;5058260;28;20477;-73
2020/12/29 03:36:12;;;;;;;0.30;0.30;;;;;;;2.88;84.10;95532.03;5059429;28;20516;-73
2020/12/29 03:38:38;;;;;;;0.30;0.15;;;;;;;3.01;83.95;95537.09;5067364;28;20028;-72
2020/12/29 03:41:03;;;;;;;0.17;0.17;;;;;;;3.06;84.01;95545.22;5057942;28;20454;-73
2020/12/29 03:43:28;;;;;;;0.03;0.03;;;;;;;3.11;82.91;95590.72;5087025;28;20095;-73
2020/12/29 03:45:54;;;;;;;0.73;0.28;;;;;;;3.05;83.50;95544.41;5086484;28;20079;-73
2020/12/29 03:48:21;;;;;;;0.13;0.10;;;;;;;3.16;83.58;95555.31;5090390;28;20033;-73
2020/12/29 03:50:47;;;;;;;0.10;0.10;;;;;;;3.14;83.31;95563.53;5082905;28;20055;-73
2020/12/29 03:53:13;;;;;;;0.40;0.20;;;;;;;3.12;84.06;95580.84;5093145;28;20062;-72
2020/12/29 03:55:38;;;;;;;0.50;0.28;;;;;;;3.02;83.87;95576.94;5084056;28;20048;-73
2020/12/29 03:58:05;;;;;;;0.90;0.20;;;;;;;3.10;83.79;95574.97;5096353;28;20088;-73
2020/12/29 04:00:30;;;;;;;1.63;0.20;;;;;;;3.13;84.03;95575.28;5090662;28;20123;-74
2020/12/29 04:02:56;;;;;;;0.47;0.20;;;;;;;3.20;83.42;95593.88;5093574;28;20044;-73
2020/12/29 04:05:21;;;;;;;0.77;0.20;;;;;;;3.16;83.95;95582.00;5099714;28;20043;-74
2020/12/29 04:07:48;;;;;;;0.20;0.20;;;;;;;3.11;83.53;95580.03;5091598;28;20445;-74
2020/12/29 04:10:14;;;;;;;0.32;0.10;;;;;;;3.19;83.20;95587.69;5076909;28;20029;-73
2020/12/29 04:12:39;;;;;;;0.10;0.10;;;;;;;3.15;83.85;95591.91;5075413;28;20469;-73
2020/12/29 04:15:06;;;;;;;0.05;0.05;;;;;;;3.19;83.89;95592.22;5075326;28;20036;-73
2020/12/29 04:17:33;;;;;;;0.60;0.20;;;;;;;3.16;83.97;95598.03;5076527;28;20055;-73
2020/12/29 04:19:58;;;;;;;0.20;0.10;;;;;;;3.19;83.12;95594.91;5077000;28;20107;-73
2020/12/29 04:22:23;;;;;;;0.00;0.00;;;;;;;3.12;84.26;95595.03;5077159;28;20028;-73
2020/12/29 04:24:49;;;;;;;0.10;0.10;;;;;;;2.91;84.25;95568.94;5076034;28;20031;-73
2020/12/29 04:27:14;;;;;;;0.00;0.00;;;;;;;3.11;83.83;95603.28;5071899;28;20074;-73
2020/12/29 04:29:39;;;;;;;0.20;0.17;;;;;;;3.02;84.18;95590.28;5058608;28;20628;-73
2020/12/29 04:32:05;;;;;;;0.10;0.10;;;;;;;3.06;84.31;95599.44;5055412;28;20090;-73
2020/12/29 04:34:30;;;;;;;1.73;0.43;;;;;;;2.99;83.85;95576.59;5061556;28;20030;-73
2020/12/29 04:36:55;;;;;;;2.72;0.43;;;;;;;3.03;83.67;95588.44;5072985;28;20060;-73
2020/12/29 04:39:21;;;;;;;0.35;0.20;;;;;;;3.08;83.52;95583.19;5076007;28;20058;-73
2020/12/29 04:41:52;;;;;;;0.17;0.10;;;;;;;3.00;82.80;95583.56;5076240;28;20141;-73
2020/12/29 04:44:18;;;;;;;0.30;0.20;;;;;;;2.98;83.66;95585.66;5062770;28;20032;-73
2020/12/29 04:46:44;;;;;;;1.42;0.30;;;;;;;2.94;83.55;95584.50;5074716;28;20032;-73
2020/12/29 04:49:09;;;;;;;0.52;0.10;;;;;;;2.94;83.48;95584.50;5080701;28;20041;-73
2020/12/29 04:51:36;;;;;;;0.75;0.20;;;;;;;3.01;83.38;95602.03;5075517;28;20024;-74
2020/12/29 04:54:06;;;;;;;0.22;0.20;;;;;;;3.09;83.29;95622.19;5075332;28;20581;-73
2020/12/29 04:56:32;;;;;;;0.28;0.13;;;;;;;2.98;83.06;95613.16;5075617;28;20501;-73
2020/12/29 04:59:02;;;;;;;0.10;0.10;;;;;;;3.06;83.50;95626.16;5075693;28;20067;-73
2020/12/29 05:01:32;;;;;;;0.93;0.28;;;;;;;3.11;83.54;95641.47;5068809;28;20029;-74
2020/12/29 05:03:58;;;;;;;0.40;0.20;;;;;;;2.96;83.92;95617.94;5079098;28;20016;-74
2020/12/29 05:06:24;;;;;;;0.32;0.13;;;;;;;2.97;84.17;95630.25;5095133;28;20059;-74
2020/12/29 05:08:52;;;;;;;0.93;0.38;;;;;;;3.04;83.68;95635.47;5095214;28;20035;-74
2020/12/29 05:11:18;;;;;;;0.40;0.10;;;;;;;3.03;83.58;95631.97;5094587;28;20032;-74
2020/12/29 05:13:45;;;;;;;1.08;0.20;;;;;;;2.96;83.32;95623.28;5096472;28;20021;-73
2020/12/29 05:16:11;;;;;;;0.70;0.30;;;;;;;3.01;84.09;95638.59;5086316;28;20085;-73
2020/12/29 05:18:36;;;;;;;1.38;0.20;;;;;;;3.04;83.62;95638.94;5075128;28;20080;-73
2020/12/29 05:21:02;;;;;;;1.52;0.30;;;;;;;3.11;83.23;95617.44;5072816;28;20485;-73
2020/12/29 05:23:29;;;;;;;2.65;0.20;;;;;;;3.14;81.94;95627.66;5072803;28;20051;-72
2020/12/29 05:25:54;;;;;;;4.07;0.40;;;;;;;3.27;81.71;95638.09;5061755;28;20028;-72
2020/12/29 05:28:20;;;;;;;0.45;0.15;;;;;;;3.26;81.63;95636.47;5068814;28;20040;-71
2020/12/29 05:30:55;;;;;;;0.10;0.10;;;;;;;3.32;82.00;95655.28;5064313;28;20465;-69
2020/12/29 05:33:21;;;;;;;1.27;0.10;;;;;;;3.18;82.01;95620.00;5066947;28;20048;-68
2020/12/29 05:35:46;;;;;;;0.85;0.20;;;;;;;3.22;81.77;95629.16;5070261;28;20122;-76
2020/12/29 05:38:12;;;;;;;0.50;0.20;;;;;;;3.28;81.72;95665.63;5069945;28;20028;-73
2020/12/29 05:40:38;;;;;;;2.05;0.30;;;;;;;3.22;81.70;95634.50;5073965;28;20056;-75
2020/12/29 05:43:03;;;;;;;0.52;0.25;;;;;;;3.33;81.50;95659.56;5064698;28;20032;-77
2020/12/29 05:45:37;;;;;;;0.45;0.15;;;;;;;3.16;81.69;95654.94;5072529;28;20120;-76
2020/12/29 05:48:02;;;;;;;1.15;0.25;;;;;;;3.22;81.37;95669.22;5067803;28;20028;-76
2020/12/29 05:50:32;;;;;;;2.17;0.20;;;;;;;3.28;81.79;95677.13;5068515;28;20055;-76
2020/12/29 05:53:06;;;;;;;0.10;0.05;;;;;;;3.21;82.26;95672.94;5049305;28;20017;-75
2020/12/29 05:55:33;;;;;;;0.43;0.15;;;;;;;3.10;82.58;95673.78;5071063;28;20025;-76
2020/12/29 05:58:02;;;;;;;1.65;0.30;;;;;;;3.17;82.73;95701.16;5065331;28;20028;-75
2020/12/29 06:00:28;;;;;;;1.75;0.35;;;;;;;3.25;81.54;95696.31;5054222;28;20039;-75
2020/12/29 06:02:58;;;;;;;1.60;0.30;;;;;;;3.21;82.42;95708.50;5072180;28;20024;-76
2020/12/29 06:05:25;;;;;;;2.00;0.50;;;;;;;3.25;82.49;95715.00;5073005;28;20024;-77
2020/12/29 06:08:06;;;;;;;2.63;0.20;;;;;;;3.27;81.59;95715.59;5057247;28;20020;-76
2020/12/29 06:10:33;;;;;;;1.10;0.13;;;;;;;3.37;81.69;95738.22;5052687;28;20513;-76
2020/12/29 06:13:01;;;;;;;0.63;0.10;;;;;;;3.37;81.38;95722.19;5071784;28;20028;-74
2020/12/29 06:19:23;;;;;;;1.05;0.22;;;;;;;3.44;81.80;95747.75;5074811;28;20091;-75
2020/12/29 06:21:58;;;;;;;1.20;0.20;;;;;;;3.29;81.64;95739.38;5078734;28;20534;-74
2020/12/29 06:24:25;;;;;;;0.98;0.20;;;;;;;3.42;81.27;95775.75;5058142;28;20027;-74
2020/12/29 06:26:52;;;;;;;0.30;0.10;;;;;;;3.37;81.65;95764.94;5077195;28;20446;-74
2020/12/29 06:29:21;;;;;;;2.83;0.20;;;;;;;3.43;82.46;95785.38;5064911;28;20025;-73
2020/12/29 06:31:46;;;;;;;3.38;0.10;;;;;;;3.31;84.27;95797.94;5064690;28;20037;-77
2020/12/29 06:34:16;;;;;;;0.45;0.10;;;;;;;3.11;84.66;95791.06;5053240;28;20032;-77
2020/12/29 06:36:42;;;;;;;0.20;0.10;;;;;;;2.82;85.07;95816.78;5063358;28;20028;-72
2020/12/29 06:39:10;;;;;;;1.25;0.10;;;;;;;2.54;85.65;95822.69;5067096;28;20841;-77
2020/12/29 06:41:36;;;;;;;0.00;0.00;;;;;;;2.40;86.62;95830.06;5069804;28;20020;-70
2020/12/29 06:44:03;;;;;;;0.17;0.10;;;;;;;2.31;86.86;95858.13;5070363;28;20115;-77
2020/12/29 06:46:29;;;;;;;0.10;0.00;;;;;;;2.11;87.37;95858.34;5071982;28;20020;-76
2020/12/29 06:49:17;;;;;;;0.52;0.30;;;;;;;2.00;87.56;95875.88;5064228;28;20042;-74
2020/12/29 06:51:43;;;;;;;0.20;0.10;;;;;;;1.65;88.17;95876.44;5072622;28;20033;-74
2020/12/29 06:54:08;;;;;;;0.05;0.05;;;;;;;1.54;88.79;95869.97;5071794;28;20037;-73
2020/12/29 06:56:33;;;;;;;0.00;0.00;;;;;;;1.43;88.86;95876.00;5068272;28;20031;-74
2020/12/29 06:58:58;;;;;;;0.00;0.00;;;;;;;1.31;89.31;95883.91;5052407;28;20035;-74
2020/12/29 07:01:34;;;;;;;0.20;0.10;;;;;;;1.18;89.63;95912.44;5068496;28;20032;-74
2020/12/29 07:04:03;;;;;;;0.20;0.10;;;;;;;1.12;90.23;95919.47;5060887;28;20104;-74
2020/12/29 07:06:30;;;;;;;1.58;0.20;;;;;;;1.03;90.33;95918.09;5066101;28;20021;-74
2020/12/29 07:09:08;;;;;;;0.28;0.10;;;;;;;0.99;90.37;95916.88;5060835;28;20385;-73
2020/12/29 07:11:34;;;;;;;2.28;0.13;;;;;;;0.99;90.49;95933.66;5055007;28;20069;-74
2020/12/29 07:14:03;;;;;;;0.00;0.00;;;;;;;1.01;90.29;95934.28;5062892;28;20016;-70
2020/12/29 07:16:28;;;;;;;1.02;0.15;;;;;;;0.96;90.63;95947.41;5066436;28;20025;-70
2020/12/29 07:19:07;;;;;;;0.00;0.00;;;;;;;1.02;90.41;95951.06;5066383;28;20033;-70
2020/12/29 07:21:33;;;;;;;0.13;0.10;;;;;;;1.11;90.36;95954.31;5061177;28;20115;-70
2020/12/29 07:24:06;;;;;;;0.63;0.30;;;;;;;1.09;90.94;95960.63;5056795;28;20027;-70
2020/12/29 07:26:37;;;;;;;0.20;0.20;;;;;;;1.09;90.88;95967.81;5064205;28;20036;-70
2020/12/29 07:29:05;;;;;;;0.80;0.20;;;;;;;1.09;90.49;95973.94;5063255;28;20090;-70
2020/12/29 07:31:33;;;;;;;0.10;0.10;;;;;;;1.09;90.86;95987.25;5068606;28;20482;-70
2020/12/29 07:34:00;;;;;;;0.17;0.17;;;;;;;1.10;90.56;95988.06;5060850;28;20023;-70
2020/12/29 07:36:26;;;;;;;0.45;0.22;;;;;;;1.07;90.59;95992.00;5065853;28;20025;-70
2020/12/29 07:38:51;;;;;;;0.75;0.20;;;;;;;1.08;90.76;96006.94;5062600;28;20021;-70
2020/12/29 07:41:18;;;;;;;0.20;0.10;;;;;;;1.09;90.89;96018.41;5065086;28;20540;-72
2020/12/29 07:43:44;;;;;;;0.13;0.13;;;;;;;1.06;90.84;96022.31;5071488;28;20489;-71
2020/12/29 07:46:10;;;;;;;0.22;0.17;;;;;;;0.97;91.02;96031.56;5071144;28;20110;-71
2020/12/29 07:48:36;;;;;;;0.22;0.22;;;;;;;0.95;91.33;96038.94;5072276;28;20386;-70
2020/12/29 07:51:01;;;;;;;0.30;0.30;;;;;;;1.05;91.37;96052.63;5059269;28;20051;-69
2020/12/29 07:53:27;;;;;;;0.28;0.20;;;;;;;0.93;90.68;96042.84;5066421;28;20030;-69
2020/12/29 07:55:53;;;;;;;2.00;0.20;;;;;;;1.04;90.93;96055.50;5057921;28;20036;-70
2020/12/29 07:58:18;;;;;;;0.77;0.25;;;;;;;1.04;90.96;96074.94;5066567;28;20132;-72
2020/12/29 08:00:44;;;;;;;0.75;0.10;;;;;;;1.07;91.17;96077.22;5063726;28;20406;-69
2020/12/29 08:03:09;;;;;;;0.50;0.20;;;;;;;1.10;91.06;96070.63;5072938;28;20031;-71
2020/12/29 08:05:35;;;;;;;0.15;0.10;;;;;;;1.19;90.78;96079.19;5054857;28;20394;-72
2020/12/29 08:08:05;;;;;;;2.15;1.13;;;;;;;1.22;90.85;96094.75;5053798;28;20063;-71
2020/12/29 08:10:32;;;;;;;0.93;0.55;;;;;;;1.21;90.93;96079.81;5055439;28;20071;-73
2020/12/29 08:13:03;;;;;;;0.45;0.20;;;;;;;1.31;90.57;96109.47;5061541;28;20034;-71
2020/12/29 08:15:36;;;;;;;1.02;0.50;;;;;;;1.32;90.80;96121.75;5059981;28;20035;-73
2020/12/29 08:18:16;;;;;;;1.60;0.40;;;;;;;1.37;90.57;96129.94;5071342;28;20123;-72
2020/12/29 08:20:50;;;;;;;0.65;0.32;;;;;;;1.36;90.69;96117.63;5072040;28;20054;-73
2020/12/29 08:23:20;;;;;;;0.20;0.20;;;;;;;1.54;90.46;96132.91;5068808;28;20107;-73
2020/12/29 08:25:50;;;;;;;0.60;0.20;;;;;;;1.61;90.53;96146.22;5068712;28;20532;-73
2020/12/29 08:28:15;;;;;;;0.50;0.30;;;;;;;1.60;90.34;96141.91;5067922;28;20027;-73
2020/12/29 08:30:41;;;;;;;0.20;0.20;;;;;;;1.57;90.58;96123.69;5071837;28;20029;-70
2020/12/29 08:33:07;;;;;;;0.75;0.30;;;;;;;1.78;90.16;96150.03;5084016;28;20184;-69
2020/12/29 08:35:42;;;;;;;0.63;0.30;;;;;;;1.74;89.75;96130.16;5066974;28;20041;-74
2020/12/29 08:38:26;;;;;;;5.63;0.80;;;;;;;1.83;89.09;96166.19;5065743;28;20060;-70
2020/12/29 08:41:13;;;;;;;1.00;0.77;;;;;;;1.94;88.85;96164.72;5078168;28;20035;-69
2020/12/29 08:43:50;;;;;;;1.15;0.70;;;;;;;1.86;88.71;96168.47;5068067;28;20031;-71
2020/12/29 08:46:17;;;;;;;1.85;0.90;;;;;;;2.00;88.99;96187.06;5059239;28;20020;-71
2020/12/29 08:49:00;;;;;;;1.95;1.40;;;;;;;1.91;89.60;96194.47;5065835;28;20040;-73
2020/12/29 08:51:30;;;;;;;3.38;1.02;;;;;;;1.90;88.94;96187.50;5066109;28;20029;-73
2020/12/29 08:54:09;;;;;;;1.33;0.57;;;;;;;1.88;89.64;96201.03;5067274;28;20029;-72
2020/12/29 08:56:35;;;;;;;1.48;0.40;;;;;;;1.82;89.62;96198.41;5069698;28;20025;-67
2020/12/29 08:59:16;;;;;;;0.80;0.47;;;;;;;1.84;89.96;96215.84;5053724;28;20048;-67
2020/12/29 09:01:43;;;;;;;2.15;0.32;;;;;;;1.91;90.05;96213.13;5059298;28;20032;-70
2020/12/29 09:04:31;;;;;;;0.70;0.43;;;;;;;1.98;89.86;96225.41;5064006;28;20700;-76
2020/12/29 09:07:13;;;;;;;1.65;0.55;;;;;;;2.00;89.48;96225.19;5059578;28;20494;-71
2020/12/29 09:10:07;;;;;;;1.67;0.82;;;;;;;2.08;88.99;96238.28;5070986;28;20123;-75
2020/12/29 09:12:33;;;;;;;2.20;0.90;;;;;;;2.05;88.98;96237.91;5064412;28;20028;-72
2020/12/29 09:15:07;;;;;;;4.03;1.98;;;;;;;2.10;88.63;96246.88;5061107;28;20029;-73
2020/12/29 09:17:35;;;;;;;5.45;2.38;;;;;;;2.10;88.88;96256.75;5066145;28;20036;-73
2020/12/29 09:20:08;;;;;;;5.18;1.90;;;;;;;2.11;89.26;96258.38;5063166;28;20143;-72
2020/12/29 09:22:34;;;;;;;1.80;1.17;;;;;;;2.23;88.90;96270.00;5055769;28;20513;-72
2020/12/29 09:25:00;;;;;;;1.30;0.68;;;;;;;2.37;89.40;96274.25;5061918;28;20048;-72
2020/12/29 09:27:29;;;;;;;1.08;0.45;;;;;;;2.54;88.01;96290.56;5070127;28;20052;-73
2020/12/29 09:29:55;;;;;;;0.73;0.50;;;;;;;2.75;87.20;96288.56;5060235;28;20119;-71
2020/12/29 09:32:23;;;;;;;0.90;0.30;;;;;;;2.80;87.63;96294.94;5072019;28;20082;-72
2020/12/29 09:34:48;;;;;;;1.02;0.60;;;;;;;2.94;87.47;96295.66;5063708;28;20021;-72
2020/12/29 09:37:13;;;;;;;1.27;0.70;;;;;;;3.12;87.32;96302.91;5060925;28;20031;-72
2020/12/29 09:39:39;;;;;;;1.02;0.50;;;;;;;3.18;86.36;96302.03;5064007;28;20025;-75
2020/12/29 09:42:04;;;;;;;1.75;0.60;;;;;;;3.26;87.05;96312.44;5065126;28;20028;-72
2020/12/29 09:44:29;;;;;;;1.38;0.73;;;;;;;3.31;86.86;96303.78;5072191;28;20025;-76
2020/12/29 09:46:54;;;;;;;0.60;0.47;;;;;;;3.29;86.51;96303.97;5068846;28;20028;-73
2020/12/29 09:49:20;;;;;;;0.88;0.50;;;;;;;3.12;87.54;96328.78;5072045;28;20029;-70
2020/12/29 09:51:51;;;;;;;0.68;0.22;;;;;;;2.97;86.96;96305.88;5064388;28;20025;-71
2020/12/29 09:54:17;;;;;;;3.72;0.50;;;;;;;3.13;86.98;96343.78;5056784;28;20490;-75
2020/12/29 09:56:42;;;;;;;0.65;0.30;;;;;;;3.10;87.15;96347.72;5050813;28;20067;-76
2020/12/29 09:59:07;;;;;;;0.77;0.45;;;;;;;2.93;88.03;96336.72;5072007;28;20029;-73
2020/12/29 10:01:32;;;;;;;1.85;0.40;;;;;;;3.10;87.23;96366.41;5068266;28;20440;-73
2020/12/29 10:03:58;;;;;;;0.93;0.50;;;;;;;2.84;87.60;96354.88;5057418;28;20028;-76
2020/12/29 10:06:23;;;;;;;1.10;0.45;;;;;;;2.97;87.39;96374.53;5066538;28;20033;-74
2020/12/29 10:08:48;;;;;;;0.20;0.20;;;;;;;2.90;87.56;96379.06;5071631;28;20389;-71
2020/12/29 10:11:13;;;;;;;0.90;0.40;;;;;;;2.85;87.22;96385.88;5065752;28;20033;-72
2020/12/29 10:13:39;;;;;;;0.55;0.30;;;;;;;2.73;87.77;96382.25;5054153;28;20169;-73
2020/12/29 10:16:04;;;;;;;1.00;0.40;;;;;;;2.80;87.43;96388.38;5070310;28;20512;-70
2020/12/29 10:18:31;;;;;;;0.63;0.43;;;;;;;2.83;87.58;96395.16;5064837;28;20032;-72
2020/12/29 10:20:56;;;;;;;0.55;0.35;;;;;;;2.80;86.99;96409.75;5063398;28;20072;-74
2020/12/29 10:23:21;;;;;;;1.75;0.40;;;;;;;2.93;87.48;96416.84;5063615;28;20535;-75
2020/12/29 10:25:47;;;;;;;1.10;0.45;;;;;;;2.88;87.30;96413.19;5084080;28;20032;-75
2020/12/29 10:28:12;;;;;;;0.90;0.40;;;;;;;2.87;87.52;96428.38;5086651;28;20032;-76
2020/12/29 10:30:37;;;;;;;1.90;0.40;;;;;;;2.59;86.62;96373.50;5072145;28;20040;-74
2020/12/29 10:33:03;;;;;;;1.45;0.30;;;;;;;2.84;86.36;96412.78;5079571;28;20143;-76
2020/12/29 10:35:28;;;;;;;0.20;0.20;;;;;;;2.94;85.58;96415.00;5076017;28;20031;-72
2020/12/29 10:37:54;;;;;;;0.22;0.20;;;;;;;2.98;85.52;96395.66;5082857;28;20016;-72
2020/12/29 10:40:19;;;;;;;0.50;0.20;;;;;;;3.25;84.47;96417.69;5072676;28;20030;-72
2020/12/29 10:42:44;;;;;;;0.25;0.15;;;;;;;3.17;83.86;96411.78;5083796;28;20017;-72
2020/12/29 10:45:10;;;;;;;1.10;0.30;;;;;;;3.57;83.92;96443.59;5071723;28;20086;-72
2020/12/29 10:47:35;;;;;;;0.22;0.10;;;;;;;3.62;82.99;96422.38;5072329;28;20028;-71
2020/12/29 10:50:01;;;;;;;0.57;0.28;;;;;;;3.98;81.98;96431.50;5079417;28;20107;-71
2020/12/29 10:52:26;;;;;;;0.15;0.10;;;;;;;4.78;79.69;96423.44;5071974;28;20032;-72
2020/12/29 10:54:51;;;;;;;0.57;0.22;;;;;;;5.66;76.20;96438.13;5060128;28;20028;-72
2020/12/29 10:57:18;;;;;;;0.32;0.10;;;;;;;4.87;78.17;96427.44;5070713;28;20028;-78
2020/12/29 10:59:44;;;;;;;0.77;0.57;;;;;;;4.77;79.42;96443.25;5055360;28;20474;-75
2020/12/29 11:02:09;;;;;;;0.10;0.10;;;;;;;5.32;77.42;96429.75;5068629;28;20035;-75
2020/12/29 11:04:34;;;;;;;0.50;0.30;;;;;;;5.59;75.08;96434.72;5092319;28;20032;-72
2020/12/29 11:07:01;;;;;;;0.35;0.20;;;;;;;5.33;76.51;96447.47;5061188;28;20488;-72
2020/12/29 11:09:26;;;;;;;0.22;0.20;;;;;;;4.81;77.57;96461.31;5057106;28;20038;-72
2020/12/29 11:11:51;;;;;;;0.30;0.15;;;;;;;4.37;78.38;96476.63;5070777;28;20032;-71
2020/12/29 11:14:16;;;;;;;1.15;0.30;;;;;;;4.12;79.95;96481.22;5071144;28;20465;-72
2020/12/29 11:16:42;;;;;;;1.02;0.40;;;;;;;4.47;79.34;96494.03;5066882;28;20024;-71
2020/12/29 11:19:07;;;;;;;1.23;0.40;;;;;;;5.33;76.17;96494.91;5058193;28;20418;-72
2020/12/29 11:21:32;;;;;;;1.25;0.68;;;;;;;6.42;72.98;96503.59;5064366;28;22325;-72
2020/12/29 11:23:57;;;;;;;0.57;0.30;;;;;;;7.76;71.29;96501.72;5057272;28;20032;-72
2020/12/29 11:26:23;;;;;;;0.90;0.30;;;;;;;7.89;69.00;96502.22;5062555;28;20043;-72
2020/12/29 11:28:49;;;;;;;0.52;0.38;;;;;;;6.90;69.62;96510.53;5070111;28;20024;-70
2020/12/29 11:31:19;;;;;;;1.38;0.40;;;;;;;5.82;73.05;96492.97;5052347;28;20029;-72
2020/12/29 11:33:45;;;;;;;1.80;0.40;;;;;;;5.64;74.63;96524.16;5052177;28;20173;-71
2020/12/29 11:36:14;;;;;;;0.95;0.43;;;;;;;5.29;75.34;96526.69;5062622;28;20056;-70
2020/12/29 11:38:40;;;;;;;1.05;0.40;;;;;;;5.03;76.37;96520.63;5056006;28;20571;-71
2020/12/29 11:41:05;;;;;;;3.63;0.40;;;;;;;5.60;74.71;96514.13;5058316;28;20143;-71
2020/12/29 11:43:31;;;;;;;1.00;0.35;;;;;;;5.44;73.97;96521.75;5055884;28;20538;-71
2020/12/29 11:45:56;;;;;;;1.55;0.40;;;;;;;5.07;74.76;96514.81;5053892;28;20039;-71